Tropical Cyclones
[Index]
Main Index Home Page Stock Weather Photos Extreme Storms Discussion Storm News and Storm Chasing Reports Tropical Cyclones / Hurricanes / Typhoons Weather Data and Links Wild Fires / Bushfires Weather Observation Techniques Weather Picture Catalogue Tornado Pictures and Reports Stock Video Footage and DVDs for sale
Season 2002-2003 Tropical Cyclone FARI Track Map
Season 2002-2003 Summaries (Operational Data): [AU] [SIO] [SPAC] [SH]
<<- Previous TC | 2002-2003 Season | Next TC ->>

click for intensity scale information  Lat/long Grid: Show Hide

 Date Labels: Show Hide

Operational Tropical Cyclone Data : JTWC Advisories

Name: FARI
Number: 0311

23 Jan 2003 06:00 UTC to 01 Feb 2003 12:00 UTC

    date/time    lat    long     hPa   cat  kts
2003-01-23 06   13.0    76.0    1006         20          
2003-01-23 12   14.7    74.9    1000         25          
2003-01-23 18   15.0    74.3     998         30          
2003-01-24 00   15.2    73.7     997         30          
2003-01-24 06   16.0    72.2     999         25          
2003-01-25 00   11.5    67.0    1004         20          
2003-01-25 06   11.6    64.6    1004         20          
2003-01-25 12   11.8    64.0    1004         20          
2003-01-25 18   12.4    62.5    1001         20          
2003-01-26 00   12.9    61.9    1001         20          
2003-01-26 06   13.8    60.3    1000         20          
2003-01-26 12   13.8    58.7    1000         20          
2003-01-26 18   14.3    57.6    1000         20          
2003-01-27 00   15.0    55.3    1002         20          
2003-01-27 06   16.8    54.8    1000         25          
2003-01-27 12   17.6    53.7     999         25          
2003-01-27 18   18.5    52.0     998         30          
2003-01-28 00   19.0    51.8     996         30          
2003-01-28 06   19.1    51.4     995         30          
2003-01-28 12   19.9    50.0     992    1    35          
2003-01-28 18   20.1    49.4     990    1    40          
2003-01-29 00   20.3    48.4     984    2    50          
2003-01-29 06   20.4    47.5    1000         25          
2003-01-29 12   22.2    44.8    1000         25          
2003-01-29 18   22.6    43.3    1000         25          
2003-01-30 00   21.9    41.8     999         25          
2003-01-30 06   23.5    41.4     999         25          
2003-01-30 12   23.6    41.5     999         25          
2003-01-30 18   24.7    42.3     999         25          
2003-01-31 00   26.1    42.5     999         25          
2003-01-31 06   27.4    43.5     999         25          
2003-01-31 12   28.1    43.8     999         25          
2003-01-31 18   29.2    44.5    1000         30          
2003-02-01 00   32.5    44.5    1000         30          
2003-02-01 06   33.0    45.5    1000         30          
2003-02-01 12   34.2    47.0    1002         30          
Winds are 10-min average.

Tropical cyclone tracks developed by Michael Bath using operational warnings and advisories and Google Maps.


[Australian Severe Weather index] [Copyright Notice] [Email Contacts] [Search This Site] [Privacy Policy]
Document: tropical_cyclone_fari.htm Updated: 2 May 2017